createdAt,value
2022-12-05T00:00:27.235Z,99588.59
2022-12-05T00:01:18.109Z,99604.53
2022-12-05T00:02:00.134Z,99609.63
2022-12-05T00:02:42.120Z,99611.56
2022-12-05T00:03:23.823Z,99599.84
2022-12-05T00:04:08.895Z,99613.38
2022-12-05T00:04:50.607Z,99601.44
2022-12-05T00:05:32.346Z,99607.59
2022-12-05T00:06:14.553Z,99595.78
2022-12-05T00:06:56.223Z,99618.06
2022-12-05T00:07:38.741Z,99617.09
2022-12-05T00:08:20.522Z,99629.41
2022-12-05T00:09:02.789Z,99605.16
2022-12-05T00:09:44.441Z,99618.69
2022-12-05T00:10:26.149Z,99622.28
2022-12-05T00:11:15.528Z,99631.47
2022-12-05T00:11:57.751Z,99626.09
2022-12-05T00:12:39.632Z,99612.63
2022-12-05T00:13:21.356Z,99643.47
2022-12-05T00:14:04.350Z,99628.63
2022-12-05T00:14:45.973Z,99624.78
2022-12-05T00:15:27.693Z,99629.19
2022-12-05T00:16:14.361Z,99633.03
2022-12-05T00:16:56.131Z,99616.69
2022-12-05T00:17:39.858Z,99642.72
2022-12-05T00:18:21.508Z,99636.63
2022-12-05T00:19:06.052Z,99628.38
2022-12-05T00:19:49.957Z,99622.06
2022-12-05T00:20:34.328Z,99632.00
2022-12-05T00:21:24.962Z,99632.28
2022-12-05T00:22:06.637Z,99631.72
2022-12-05T00:22:48.292Z,99630.06
2022-12-05T00:23:30.372Z,99614.13
2022-12-05T00:24:15.345Z,99632.00
2022-12-05T00:24:57.014Z,99630.22
2022-12-05T00:25:38.760Z,99632.16
2022-12-05T00:26:21.836Z,99640.31
2022-12-05T00:27:03.648Z,99638.69
2022-12-05T00:27:46.107Z,99630.81
2022-12-05T00:28:27.777Z,99645.81
2022-12-05T00:29:09.530Z,99644.41
2022-12-05T00:29:51.214Z,99643.97
2022-12-05T00:30:32.872Z,99643.69
2022-12-05T00:31:17.940Z,99645.47
2022-12-05T00:31:59.787Z,99641.19
2022-12-05T00:32:41.479Z,99649.88
2022-12-05T00:33:23.151Z,99646.28
2022-12-05T00:34:04.948Z,99626.16
2022-12-05T00:34:46.646Z,99638.16
2022-12-05T00:35:28.287Z,99641.75
2022-12-05T00:36:16.528Z,99643.81
2022-12-05T00:36:58.232Z,99638.47
2022-12-05T00:37:39.856Z,99602.44
2022-12-05T00:38:21.558Z,99639.38
2022-12-05T00:39:07.417Z,99633.56
2022-12-05T00:39:49.113Z,99581.72
2022-12-05T00:40:30.803Z,99618.31
2022-12-05T00:41:15.654Z,99622.44
2022-12-05T00:41:57.278Z,99636.06
2022-12-05T00:42:38.924Z,99641.28
2022-12-05T00:43:20.563Z,99626.59
2022-12-05T00:44:03.070Z,99644.59
2022-12-05T00:44:44.780Z,99641.97
2022-12-05T00:45:26.497Z,99642.81
2022-12-05T00:46:11.776Z,99644.44
2022-12-05T00:46:53.497Z,99621.34
2022-12-05T00:47:38.492Z,99650.09
2022-12-05T00:48:20.165Z,99618.53
2022-12-05T00:49:03.681Z,99648.00
2022-12-05T00:49:45.371Z,99643.72
2022-12-05T00:50:27.055Z,99646.00
2022-12-05T00:51:20.646Z,99619.03
2022-12-05T00:52:02.293Z,99641.75
2022-12-05T00:52:43.901Z,99652.59
2022-12-05T00:53:25.539Z,99552.44
2022-12-05T00:54:11.212Z,99651.50
2022-12-05T00:54:52.825Z,99653.16
2022-12-05T00:55:37.393Z,99658.25
2022-12-05T00:56:22.195Z,99660.03
2022-12-05T00:57:03.905Z,99644.38
2022-12-05T00:57:45.528Z,99655.63
2022-12-05T00:58:27.311Z,99650.38
2022-12-05T00:59:14.050Z,99654.66
2022-12-05T00:59:56.004Z,99634.16
2022-12-05T01:00:37.878Z,99650.38
2022-12-05T01:01:26.016Z,99654.50
2022-12-05T01:02:07.758Z,99647.91
2022-12-05T01:02:49.491Z,99637.03
2022-12-05T01:03:31.211Z,99649.84
2022-12-05T01:04:18.930Z,99652.03
2022-12-05T01:05:00.648Z,99646.94
2022-12-05T01:05:42.306Z,99648.44
2022-12-05T01:06:25.389Z,99648.16
2022-12-05T01:07:07.282Z,99649.50
2022-12-05T01:07:49.031Z,99654.31
2022-12-05T01:08:30.681Z,99646.72
2022-12-05T01:09:18.259Z,99627.31
2022-12-05T01:10:00.114Z,99633.91
2022-12-05T01:10:41.894Z,99630.44
2022-12-05T01:11:25.633Z,99651.41
2022-12-05T01:12:07.608Z,99645.31
2022-12-05T01:12:49.257Z,99654.16
2022-12-05T01:13:31.357Z,99633.06
2022-12-05T01:14:15.479Z,99647.25
2022-12-05T01:14:57.228Z,99646.44
2022-12-05T01:15:38.923Z,99656.09
2022-12-05T01:16:25.513Z,99655.28
2022-12-05T01:17:07.305Z,99646.34
2022-12-05T01:17:48.970Z,99652.25
2022-12-05T01:18:30.756Z,99652.94
2022-12-05T01:19:15.616Z,99639.88
2022-12-05T01:19:57.625Z,99626.53
2022-12-05T01:20:40.850Z,99651.16
2022-12-05T01:21:23.137Z,99626.53
2022-12-05T01:22:04.816Z,99644.03
2022-12-05T01:22:46.539Z,99656.94
2022-12-05T01:23:28.135Z,99630.00
2022-12-05T01:24:11.553Z,99654.75
2022-12-05T01:24:53.193Z,99643.09
2022-12-05T01:25:35.192Z,99659.75
2022-12-05T01:26:19.916Z,99646.56
2022-12-05T01:27:01.542Z,99671.91
2022-12-05T01:27:43.180Z,99641.66
2022-12-05T01:28:24.881Z,99666.13
2022-12-05T01:29:06.611Z,99667.91
2022-12-05T01:29:48.507Z,99663.78
2022-12-05T01:30:30.175Z,99672.19
2022-12-05T01:31:33.231Z,99669.78
2022-12-05T01:32:15.018Z,99660.44
2022-12-05T01:32:56.673Z,99671.16
2022-12-05T01:33:38.392Z,99663.75
2022-12-05T01:34:20.989Z,99670.34
2022-12-05T01:35:02.645Z,99669.66
2022-12-05T01:35:44.640Z,99636.34
2022-12-05T01:36:27.990Z,99675.50
2022-12-05T01:37:09.643Z,99652.22
2022-12-05T01:37:51.868Z,99674.81
2022-12-05T01:38:33.509Z,99661.91
2022-12-05T01:39:15.990Z,99675.63
2022-12-05T01:39:57.865Z,99675.78
2022-12-05T01:40:41.321Z,99679.91
2022-12-05T01:41:27.234Z,99674.53
2022-12-05T01:42:08.966Z,99682.41
2022-12-05T01:42:50.624Z,99598.84
2022-12-05T01:43:33.425Z,99677.00
2022-12-05T01:44:14.971Z,99671.44
2022-12-05T01:45:07.181Z,99659.75
2022-12-05T01:45:48.955Z,99668.59
2022-12-05T01:46:36.672Z,99682.88
2022-12-05T01:47:19.475Z,99675.69
2022-12-05T01:48:07.355Z,99675.53
2022-12-05T01:48:50.400Z,99671.41
2022-12-05T01:49:37.923Z,99659.84
2022-12-05T01:50:20.215Z,99678.00
2022-12-05T01:51:02.785Z,99681.78
2022-12-05T01:51:53.821Z,99686.19
2022-12-05T01:52:36.568Z,99677.09
2022-12-05T01:53:19.442Z,99673.84
2022-12-05T01:54:02.361Z,99681.56
2022-12-05T01:54:46.406Z,99691.59
2022-12-05T01:55:28.204Z,99688.16
2022-12-05T01:56:10.236Z,99691.59
2022-12-05T01:57:05.140Z,99682.53
2022-12-05T01:57:48.430Z,99691.59
2022-12-05T01:58:36.776Z,99689.97
2022-12-05T01:59:21.231Z,99688.31
2022-12-05T02:00:10.048Z,99694.69
2022-12-05T02:00:54.447Z,99686.28
2022-12-05T02:01:36.221Z,99693.84
2022-12-05T02:02:18.792Z,99696.84
2022-12-05T02:03:06.368Z,99697.53
2022-12-05T02:03:51.829Z,99695.88
2022-12-05T02:04:38.496Z,99695.88
2022-12-05T02:05:24.904Z,99671.97
2022-12-05T02:06:06.994Z,99684.88
2022-12-05T02:06:49.028Z,99689.97
2022-12-05T02:07:32.368Z,99673.59
2022-12-05T02:08:14.229Z,99687.78
2022-12-05T02:08:56.278Z,99687.63
2022-12-05T02:09:37.895Z,99691.22
2022-12-05T02:10:19.743Z,99684.19
2022-12-05T02:11:01.473Z,99682.00
2022-12-05T02:11:56.773Z,99691.09
2022-12-05T02:12:39.284Z,99680.75
2022-12-05T02:13:48.457Z,99689.59
2022-12-05T02:14:48.026Z,99690.16
2022-12-05T02:15:45.471Z,99691.28
2022-12-05T02:16:47.801Z,99691.44
2022-12-05T02:17:36.301Z,99692.41
2022-12-05T02:18:36.716Z,99696.66
2022-12-05T02:19:36.202Z,99695.00
2022-12-05T02:20:26.889Z,99695.97
2022-12-05T02:21:30.107Z,99694.34
2022-12-05T02:22:33.552Z,99691.72
2022-12-05T02:24:16.852Z,99698.47
2022-12-05T02:25:13.191Z,99697.34
2022-12-05T02:26:08.362Z,99699.16
2022-12-05T02:27:15.735Z,99698.19
2022-12-05T02:28:31.188Z,99688.81
2022-12-05T02:29:33.298Z,99674.22
2022-12-05T02:30:19.123Z,99702.84
2022-12-05T02:31:15.659Z,99700.06
2022-12-05T02:32:12.553Z,99688.91
2022-12-05T02:33:19.343Z,99700.63
2022-12-05T02:34:16.504Z,99699.78
2022-12-05T02:35:12.458Z,99708.63
2022-12-05T02:36:11.492Z,99677.91
2022-12-05T02:37:06.524Z,99708.63
2022-12-05T02:38:02.947Z,99709.44
2022-12-05T02:38:47.419Z,99711.25
2022-12-05T02:39:31.775Z,99704.22
2022-12-05T02:40:32.248Z,99714.69
2022-12-05T02:41:16.525Z,99714.56
2022-12-05T02:42:06.480Z,99722.44
2022-12-05T02:43:05.619Z,99719.81
2022-12-05T02:43:50.045Z,99724.88
2022-12-05T02:44:39.470Z,99699.56
2022-12-05T02:45:25.747Z,99728.31
2022-12-05T02:46:14.981Z,99732.47
2022-12-05T02:46:58.376Z,99739.50
2022-12-05T02:47:45.396Z,99705.88
2022-12-05T02:48:28.830Z,99737.28
2022-12-05T02:49:14.456Z,99736.47
2022-12-05T02:49:57.434Z,99711.81
2022-12-05T02:50:41.385Z,99706.47
2022-12-05T02:51:26.004Z,99738.16
2022-12-05T02:52:12.442Z,99733.34
2022-12-05T02:52:58.333Z,99728.81
2022-12-05T02:53:41.919Z,99739.69
2022-12-05T02:54:27.502Z,99735.72
2022-12-05T02:55:10.109Z,99712.72
2022-12-05T02:55:52.240Z,99716.69
2022-12-05T02:56:36.411Z,99739.84
2022-12-05T02:57:19.449Z,99733.75
2022-12-05T02:58:05.674Z,99693.13
2022-12-05T02:58:55.076Z,99731.00
2022-12-05T02:59:37.158Z,99720.13
2022-12-05T03:00:19.150Z,99723.59
2022-12-05T03:01:01.020Z,99729.34
2022-12-05T03:01:46.544Z,99723.59
2022-12-05T03:02:32.125Z,99715.44
2022-12-05T03:03:22.446Z,99713.66
2022-12-05T03:04:07.832Z,99712.28
2022-12-05T03:04:49.805Z,99701.16
2022-12-05T03:05:54.247Z,99718.34
2022-12-05T03:07:10.913Z,99713.09
2022-12-05T03:07:57.193Z,99737.34
2022-12-05T03:08:47.252Z,99728.53
2022-12-05T03:09:43.096Z,99733.75
2022-12-05T03:10:27.806Z,99736.38
2022-12-05T03:11:09.797Z,99711.84
2022-12-05T03:11:58.566Z,99736.94
2022-12-05T03:12:48.637Z,99737.75
2022-12-05T03:13:39.162Z,99734.44
2022-12-05T03:14:26.563Z,99746.31
2022-12-05T03:15:18.331Z,99742.72
2022-12-05T03:16:07.084Z,99744.53
2022-12-05T03:16:59.584Z,99731.72
2022-12-05T03:17:49.082Z,99758.47
2022-12-05T03:18:37.994Z,99753.91
2022-12-05T03:20:05.084Z,99753.72
2022-12-05T03:20:52.603Z,99740.66
2022-12-05T03:21:38.612Z,99749.78
2022-12-05T03:22:55.183Z,99757.63
2022-12-05T03:23:43.488Z,99747.84
2022-12-05T03:24:25.702Z,99725.78
2022-12-05T03:25:08.927Z,99755.84
2022-12-05T03:26:14.358Z,99762.06
2022-12-05T03:27:14.753Z,99756.94
2022-12-05T03:28:06.264Z,99752.72
2022-12-05T03:29:11.171Z,99770.63
2022-12-05T03:29:59.029Z,99761.97
2022-12-05T03:30:42.455Z,99773.56
2022-12-05T03:31:53.311Z,99770.78
2022-12-05T03:33:02.703Z,99767.19
2022-12-05T03:33:50.494Z,99741.56
2022-12-05T03:34:42.244Z,99731.91
2022-12-05T03:35:30.622Z,99769.38
2022-12-05T03:36:17.783Z,99769.94
2022-12-05T03:37:06.953Z,99761.50
2022-12-05T03:38:11.343Z,99756.53
2022-12-05T03:39:11.520Z,99776.69
2022-12-05T03:40:38.857Z,99771.44
2022-12-05T03:41:47.399Z,99772.78
2022-12-05T03:42:33.513Z,99769.31
2022-12-05T03:43:18.932Z,99770.16
2022-12-05T03:44:19.018Z,99769.16
2022-12-05T03:45:07.197Z,99765.56
2022-12-05T03:46:14.121Z,99761.13
2022-12-05T03:46:58.844Z,99756.34
2022-12-05T03:48:14.158Z,99759.66
2022-12-05T03:48:58.149Z,99760.22
2022-12-05T03:49:46.000Z,99761.88
2022-12-05T03:50:29.639Z,99773.34
2022-12-05T03:51:14.701Z,99771.31
2022-12-05T03:52:02.840Z,99775.72
2022-12-05T03:53:18.567Z,99742.63
2022-12-05T03:53:59.827Z,99776.00
2022-12-05T03:54:50.164Z,99774.19
2022-12-05T03:55:35.851Z,99768.13
2022-12-05T03:56:24.471Z,99774.91
2022-12-05T03:57:16.443Z,99760.97
2022-12-05T03:58:00.937Z,99772.28
2022-12-05T03:58:57.080Z,99763.06
2022-12-05T03:59:47.681Z,99788.44
2022-12-05T04:00:34.416Z,99786.22
2022-12-05T04:01:18.334Z,99778.50
2022-12-05T04:02:04.933Z,99769.56
2022-12-05T04:02:56.145Z,99780.69
2022-12-05T04:03:46.487Z,99736.72
2022-12-05T04:04:39.821Z,99763.31
2022-12-05T04:05:30.912Z,99743.47
2022-12-05T04:06:30.515Z,99741.28
2022-12-05T04:07:16.663Z,99744.16
2022-12-05T04:08:08.738Z,99753.91
2022-12-05T04:08:56.186Z,99752.81
2022-12-05T04:09:44.916Z,99764.41
2022-12-05T04:10:30.513Z,99751.47
2022-12-05T04:11:18.148Z,99760.13
2022-12-05T04:12:08.761Z,99763.84
2022-12-05T04:12:55.325Z,99754.75
2022-12-05T04:13:46.046Z,99755.16
2022-12-05T04:14:37.535Z,99746.75
2022-12-05T04:15:48.502Z,99746.47
2022-12-05T04:16:57.027Z,99728.00
2022-12-05T04:17:54.882Z,99748.66
2022-12-05T04:18:41.757Z,99758.00
2022-12-05T04:19:29.595Z,99752.63
2022-12-05T04:21:02.877Z,99752.44
2022-12-05T04:21:50.372Z,99757.81
2022-12-05T04:22:33.363Z,99732.81
2022-12-05T04:23:16.081Z,99752.66
2022-12-05T04:24:16.740Z,99759.94
2022-12-05T04:25:24.459Z,99738.28
2022-12-05T04:26:24.205Z,99761.91
2022-12-05T04:27:13.585Z,99765.91
2022-12-05T04:28:21.461Z,99769.75
2022-12-05T04:29:15.123Z,99756.66
2022-12-05T04:30:03.658Z,99770.19
2022-12-05T04:31:03.950Z,99771.31
2022-12-05T04:31:51.421Z,99755.47
2022-12-05T04:32:51.660Z,99764.41
2022-12-05T04:33:44.745Z,99744.72
2022-12-05T04:34:29.249Z,99771.91
2022-12-05T04:35:39.842Z,99769.56
2022-12-05T04:36:30.251Z,99768.06
2022-12-05T04:37:15.317Z,99769.16
2022-12-05T04:38:11.977Z,99755.00
2022-12-05T04:39:17.501Z,99749.59
2022-12-05T04:40:09.052Z,99770.25
2022-12-05T04:40:56.620Z,99761.91
2022-12-05T04:41:43.214Z,99758.19
2022-12-05T04:42:29.090Z,99762.47
2022-12-05T04:43:13.461Z,99760.50
2022-12-05T04:43:59.380Z,99768.09
2022-12-05T04:44:47.016Z,99733.09
2022-12-05T04:45:30.940Z,99750.50
2022-12-05T04:46:15.723Z,99767.41
2022-12-05T04:47:01.937Z,99734.06
2022-12-05T04:47:50.495Z,99765.47
2022-12-05T04:48:37.419Z,99756.63
2022-12-05T04:49:23.493Z,99770.25
2022-12-05T04:50:08.406Z,99767.50
2022-12-05T04:50:53.888Z,99748.34
2022-12-05T04:51:38.460Z,99765.41
2022-12-05T04:52:21.616Z,99759.75
2022-12-05T04:53:03.998Z,99770.38
2022-12-05T04:53:47.979Z,99761.28
2022-12-05T04:54:38.254Z,99776.13
2022-12-05T04:55:25.952Z,99762.03
2022-12-05T04:56:11.998Z,99768.66
2022-12-05T04:57:01.418Z,99764.22
2022-12-05T04:58:03.000Z,99774.72
2022-12-05T04:58:45.048Z,99741.91
2022-12-05T04:59:26.744Z,99767.81
2022-12-05T05:00:08.833Z,99765.63
2022-12-05T05:00:55.750Z,99764.22
2022-12-05T05:01:43.077Z,99780.81
2022-12-05T05:02:49.726Z,99753.47
2022-12-05T05:03:39.601Z,99765.03
2022-12-05T05:04:29.903Z,99762.41
2022-12-05T05:05:14.675Z,99745.22
2022-12-05T05:05:57.845Z,99769.19
2022-12-05T05:06:41.000Z,99764.91
2022-12-05T05:07:22.705Z,99762.78
2022-12-05T05:08:04.802Z,99741.16
2022-12-05T05:08:52.265Z,99746.28
2022-12-05T05:09:34.596Z,99759.19
2022-12-05T05:10:22.415Z,99763.16
2022-12-05T05:11:11.465Z,99760.41
2022-12-05T05:11:53.071Z,99749.44
2022-12-05T05:12:34.674Z,99741.56
2022-12-05T05:13:16.541Z,99755.88
2022-12-05T05:13:58.666Z,99763.84
2022-12-05T05:14:40.365Z,99746.50
2022-12-05T05:15:22.090Z,99769.66
2022-12-05T05:16:04.196Z,99767.16
2022-12-05T05:16:45.933Z,99779.31
2022-12-05T05:17:27.967Z,99776.84
2022-12-05T05:18:10.072Z,99776.16
2022-12-05T05:18:52.456Z,99771.06
2022-12-05T05:19:34.198Z,99762.28
2022-12-05T05:20:25.000Z,99775.47
2022-12-05T05:21:06.647Z,99778.09
2022-12-05T05:21:48.723Z,99749.38
2022-12-05T05:22:30.332Z,99779.63
2022-12-05T05:23:11.984Z,99746.88
2022-12-05T05:23:54.421Z,99776.03
2022-12-05T05:24:36.083Z,99755.50
2022-12-05T05:25:19.228Z,99742.47
2022-12-05T05:26:00.985Z,99780.97
2022-12-05T05:26:45.554Z,99775.72
2022-12-05T05:27:27.329Z,99776.53
2022-12-05T05:28:11.880Z,99781.94
2022-12-05T05:28:54.139Z,99765.78
2022-12-05T05:29:35.845Z,99727.97
2022-12-05T05:30:18.707Z,99771.94
2022-12-05T05:31:04.830Z,99762.34
2022-12-05T05:31:46.908Z,99775.41
2022-12-05T05:32:28.729Z,99766.34
2022-12-05T05:33:10.354Z,99754.59
2022-12-05T05:33:54.032Z,99695.31
2022-12-05T05:34:35.902Z,99602.53
2022-12-05T05:35:17.698Z,99764.53
2022-12-05T05:36:04.672Z,99769.16
2022-12-05T05:36:52.883Z,99772.78
2022-12-05T05:37:34.959Z,99774.72
2022-12-05T05:38:16.646Z,99763.31
2022-12-05T05:39:01.324Z,99776.69
2022-12-05T05:39:43.107Z,99747.78
2022-12-05T05:40:24.793Z,99758.97
2022-12-05T05:41:09.249Z,99773.53
2022-12-05T05:41:53.205Z,99777.97
2022-12-05T05:42:34.923Z,99776.44
2022-12-05T05:43:16.540Z,99778.41
2022-12-05T05:43:59.162Z,99779.38
2022-12-05T05:44:44.322Z,99734.94
2022-12-05T05:45:26.132Z,99764.50
2022-12-05T05:46:08.055Z,99751.88
2022-12-05T05:46:49.909Z,99792.66
2022-12-05T05:47:31.694Z,99784.94
2022-12-05T05:48:13.475Z,99797.09
2022-12-05T05:48:55.644Z,99792.72
2022-12-05T05:49:37.385Z,99771.25
2022-12-05T05:50:21.705Z,99776.19
2022-12-05T05:51:06.339Z,99793.31
2022-12-05T05:51:48.037Z,99781.88
2022-12-05T05:52:32.062Z,99792.38
2022-12-05T05:53:13.776Z,99795.84
2022-12-05T05:53:57.896Z,99787.13
2022-12-05T05:54:39.738Z,99799.28
2022-12-05T05:55:21.353Z,99780.16
2022-12-05T05:56:08.798Z,99797.50
2022-12-05T05:56:50.429Z,99804.69
2022-12-05T05:57:32.147Z,99783.75
2022-12-05T05:58:13.824Z,99795.00
2022-12-05T05:59:01.741Z,99802.31
2022-12-05T05:59:43.410Z,99801.88
2022-12-05T06:00:25.120Z,99785.06
2022-12-05T06:01:09.189Z,99800.47
2022-12-05T06:01:50.875Z,99793.03
2022-12-05T06:02:34.352Z,99808.19
2022-12-05T06:03:16.190Z,99771.56
2022-12-05T06:03:58.772Z,99798.66
2022-12-05T06:04:40.495Z,99811.50
2022-12-05T06:05:22.163Z,99805.97
2022-12-05T06:06:06.708Z,99810.91
2022-12-05T06:06:48.331Z,99816.84
2022-12-05T06:07:30.528Z,99800.94
2022-12-05T06:08:12.316Z,99806.19
2022-12-05T06:08:54.997Z,99796.09
2022-12-05T06:09:36.996Z,99782.75
2022-12-05T06:10:18.756Z,99813.63
2022-12-05T06:11:04.389Z,99815.94
2022-12-05T06:11:46.082Z,99816.09
2022-12-05T06:12:27.832Z,99797.41
2022-12-05T06:13:09.512Z,99789.25
2022-12-05T06:13:51.313Z,99816.94
2022-12-05T06:14:33.379Z,99822.69
2022-12-05T06:15:15.127Z,99819.25
2022-12-05T06:15:56.877Z,99823.03
2022-12-05T06:16:38.662Z,99821.03
2022-12-05T06:17:20.502Z,99825.31
2022-12-05T06:18:02.192Z,99823.03
2022-12-05T06:18:44.073Z,99818.75
2022-12-05T06:19:25.808Z,99818.56
2022-12-05T06:20:09.050Z,99815.28
2022-12-05T06:20:58.049Z,99781.72
2022-12-05T06:21:42.644Z,99799.56
2022-12-05T06:22:26.540Z,99781.38
2022-12-05T06:23:09.002Z,99824.81
2022-12-05T06:23:50.794Z,99797.53
2022-12-05T06:24:32.484Z,99811.88
2022-12-05T06:25:14.491Z,99830.06
2022-12-05T06:25:56.696Z,99833.13
2022-12-05T06:26:38.551Z,99807.66
2022-12-05T06:27:20.268Z,99818.56
2022-12-05T06:28:04.327Z,99822.97
2022-12-05T06:28:46.246Z,99835.22
2022-12-05T06:29:32.373Z,99813.59
2022-12-05T06:30:15.660Z,99824.19
2022-12-05T06:30:57.387Z,99836.03
2022-12-05T06:31:39.321Z,99811.78
2022-12-05T06:32:21.680Z,99815.94
2022-12-05T06:33:03.403Z,99816.06
2022-12-05T06:33:46.006Z,99833.41
2022-12-05T06:34:27.768Z,99843.22
2022-12-05T06:35:15.724Z,99842.38
2022-12-05T06:36:06.655Z,99845.59
2022-12-05T06:36:48.327Z,99833.78
2022-12-05T06:37:29.945Z,99837.16
2022-12-05T06:38:11.801Z,99816.19
2022-12-05T06:38:53.466Z,99823.75
2022-12-05T06:39:35.219Z,99849.38
2022-12-05T06:40:17.008Z,99848.13
2022-12-05T06:40:58.783Z,99832.03
2022-12-05T06:41:40.431Z,99852.41
2022-12-05T06:42:22.330Z,99856.38
2022-12-05T06:43:04.110Z,99828.44
2022-12-05T06:43:46.651Z,99850.00
2022-12-05T06:44:29.125Z,99852.50
2022-12-05T06:45:11.427Z,99855.53
2022-12-05T06:45:53.149Z,99861.59
2022-12-05T06:46:34.835Z,99841.75
2022-12-05T06:47:16.618Z,99834.69
2022-12-05T06:47:58.349Z,99842.53
2022-12-05T06:48:40.219Z,99838.38
2022-12-05T06:49:30.720Z,99842.38
2022-12-05T06:50:14.340Z,99844.53
2022-12-05T06:50:56.352Z,99824.72
2022-12-05T06:51:38.069Z,99842.22
2022-12-05T06:52:19.747Z,99846.50
2022-12-05T06:53:01.434Z,99844.03
2022-12-05T06:53:43.506Z,99809.03
2022-12-05T06:54:25.642Z,99848.59
2022-12-05T06:55:07.500Z,99843.25
2022-12-05T06:55:59.998Z,99827.00
2022-12-05T06:56:41.597Z,99843.59
2022-12-05T06:57:23.272Z,99846.38
2022-12-05T06:58:04.977Z,99847.66
2022-12-05T06:58:52.335Z,99831.84
2022-12-05T06:59:33.985Z,99851.81
2022-12-05T07:00:34.553Z,99851.97
2022-12-05T07:01:38.350Z,99848.81
2022-12-05T07:02:20.230Z,99857.13
2022-12-05T07:03:02.142Z,99841.41
2022-12-05T07:03:44.172Z,99851.31
2022-12-05T07:04:25.987Z,99857.81
2022-12-05T07:05:11.543Z,99850.66
2022-12-05T07:05:53.213Z,99866.50
2022-12-05T07:06:35.395Z,99875.22
2022-12-05T07:07:17.008Z,99867.19
2022-12-05T07:07:58.705Z,99866.09
2022-12-05T07:08:41.461Z,99847.06
2022-12-05T07:09:45.065Z,99866.03
2022-12-05T07:10:26.835Z,99866.25
2022-12-05T07:11:08.970Z,99837.56
2022-12-05T07:11:51.472Z,99847.50
2022-12-05T07:12:33.701Z,99861.78
2022-12-05T07:13:15.854Z,99859.69
2022-12-05T07:13:57.861Z,99867.28
2022-12-05T07:14:47.694Z,99848.66
2022-12-05T07:15:30.561Z,99861.44
2022-12-05T07:16:12.326Z,99843.09
2022-12-05T07:16:54.159Z,99868.88
2022-12-05T07:17:38.064Z,99860.84
2022-12-05T07:18:19.695Z,99830.44
2022-12-05T07:19:02.451Z,99864.16
2022-12-05T07:19:44.221Z,99862.22
2022-12-05T07:20:30.216Z,99867.31
2022-12-05T07:21:21.961Z,99833.13
2022-12-05T07:22:03.881Z,99868.81
2022-12-05T07:22:45.961Z,99863.56
2022-12-05T07:23:28.297Z,99869.50
2022-12-05T07:24:09.984Z,99872.81
2022-12-05T07:24:53.148Z,99865.75
2022-12-05T07:25:34.863Z,99866.03
2022-12-05T07:26:21.052Z,99870.84
2022-12-05T07:27:02.744Z,99843.13
2022-12-05T07:27:44.523Z,99866.78
2022-12-05T07:28:26.191Z,99848.09
2022-12-05T07:29:07.848Z,99867.63
2022-12-05T07:29:49.464Z,99872.44
2022-12-05T07:30:31.144Z,99877.25
2022-12-05T07:31:17.346Z,99871.69
2022-12-05T07:31:59.335Z,99871.19
2022-12-05T07:32:41.156Z,99874.41
2022-12-05T07:33:22.869Z,99859.97
2022-12-05T07:34:04.489Z,99873.94
2022-12-05T07:34:48.616Z,99872.44
2022-12-05T07:35:32.529Z,99867.78
2022-12-05T07:36:20.590Z,99867.16
2022-12-05T07:37:02.343Z,99849.59
2022-12-05T07:37:44.021Z,99880.78
2022-12-05T07:38:25.667Z,99850.44
2022-12-05T07:39:07.351Z,99872.44
2022-12-05T07:39:49.050Z,99869.72
2022-12-05T07:40:30.815Z,99874.69
2022-12-05T07:41:21.558Z,99881.31
2022-12-05T07:42:03.379Z,99861.50
2022-12-05T07:42:48.447Z,99869.59
2022-12-05T07:43:30.655Z,99883.28
2022-12-05T07:44:13.319Z,99882.44
2022-12-05T07:44:54.987Z,99854.19
2022-12-05T07:45:36.762Z,99881.91
2022-12-05T07:46:19.011Z,99887.09
2022-12-05T07:47:00.953Z,99881.16
2022-12-05T07:47:42.766Z,99885.19
2022-12-05T07:48:24.507Z,99857.69
2022-12-05T07:49:07.392Z,99886.38
2022-12-05T07:49:49.057Z,99880.13
2022-12-05T07:50:30.724Z,99869.00
2022-12-05T07:51:12.483Z,99868.06
2022-12-05T07:51:54.207Z,99894.44
2022-12-05T07:52:35.842Z,99899.97
2022-12-05T07:53:17.580Z,99904.56
2022-12-05T07:53:59.950Z,99905.28
2022-12-05T07:54:41.596Z,99905.53
2022-12-05T07:55:23.282Z,99887.91
2022-12-05T07:56:07.363Z,99887.09
2022-12-05T07:56:49.050Z,99901.16
2022-12-05T07:57:31.231Z,99899.91
2022-12-05T07:58:12.912Z,99919.09
2022-12-05T07:58:54.793Z,99898.72
2022-12-05T07:59:36.456Z,99923.69
2022-12-05T08:00:18.864Z,99894.56
2022-12-05T08:01:12.122Z,99922.25
2022-12-05T08:01:54.498Z,99908.75
2022-12-05T08:02:40.395Z,99926.78
2022-12-05T08:03:22.531Z,99905.16
2022-12-05T08:04:04.398Z,99919.75
2022-12-05T08:04:46.074Z,99903.63
2022-12-05T08:05:27.775Z,99906.78
2022-12-05T08:06:13.102Z,99919.56
2022-12-05T08:06:54.791Z,99923.72
2022-12-05T08:07:36.584Z,99923.28
2022-12-05T08:08:18.537Z,99920.88
2022-12-05T08:09:00.366Z,99922.94
2022-12-05T08:09:42.172Z,99862.13
2022-12-05T08:10:23.804Z,99904.28
2022-12-05T08:11:13.265Z,99917.56
2022-12-05T08:11:54.947Z,99899.22
2022-12-05T08:12:37.954Z,99917.00
2022-12-05T08:13:19.723Z,99891.50
2022-12-05T08:14:02.639Z,99904.91
2022-12-05T08:14:44.755Z,99899.94
2022-12-05T08:15:26.572Z,99910.16
2022-12-05T08:16:11.588Z,99911.25
2022-12-05T08:16:53.485Z,99887.03
2022-12-05T08:17:35.270Z,99903.72
2022-12-05T08:18:17.049Z,99903.91
2022-12-05T08:19:01.508Z,99917.28
2022-12-05T08:19:43.254Z,99907.94
2022-12-05T08:20:25.079Z,99925.19
2022-12-05T08:21:12.568Z,99922.34
2022-12-05T08:21:55.352Z,99926.06
2022-12-05T08:22:37.082Z,99927.19
2022-12-05T08:23:18.864Z,99892.44
2022-12-05T08:24:00.981Z,99913.94
2022-12-05T08:24:43.317Z,99922.06
2022-12-05T08:25:25.362Z,99880.19
2022-12-05T08:26:10.628Z,99927.03
2022-12-05T08:26:52.378Z,99925.53
2022-12-05T08:27:34.072Z,99907.19
2022-12-05T08:28:16.037Z,99923.22
2022-12-05T08:29:06.015Z,99924.19
2022-12-05T08:29:47.885Z,99914.91
2022-12-05T08:30:29.705Z,99906.50
2022-12-05T08:31:13.575Z,99917.78
2022-12-05T08:31:55.433Z,99916.44
2022-12-05T08:32:37.094Z,99911.19
2022-12-05T08:33:18.745Z,99928.69
2022-12-05T08:34:00.859Z,99912.16
2022-12-05T08:34:42.705Z,99897.09
2022-12-05T08:35:24.388Z,99920.28
2022-12-05T08:36:09.273Z,99927.97
2022-12-05T08:36:50.979Z,99911.16
2022-12-05T08:37:32.692Z,99910.56
2022-12-05T08:38:14.489Z,99934.41
2022-12-05T08:39:04.383Z,99933.84
2022-12-05T08:39:46.124Z,99931.59
2022-12-05T08:40:28.350Z,99938.09
2022-12-05T08:41:13.157Z,99925.38
2022-12-05T08:41:54.916Z,99912.53
2022-12-05T08:42:36.713Z,99942.03
2022-12-05T08:43:18.349Z,99913.75
2022-12-05T08:44:09.920Z,99922.56
2022-12-05T08:44:51.543Z,99929.88
2022-12-05T08:45:33.214Z,99939.47
2022-12-05T08:46:14.972Z,99925.28
2022-12-05T08:46:56.818Z,99942.19
2022-12-05T08:47:38.513Z,99929.50
2022-12-05T08:48:24.657Z,99932.97
2022-12-05T08:49:11.021Z,99947.56
2022-12-05T08:49:52.685Z,99938.31
2022-12-05T08:50:34.432Z,99929.06
2022-12-05T08:51:16.265Z,99939.81
2022-12-05T08:51:57.951Z,99928.91
2022-12-05T08:52:39.613Z,99925.16
2022-12-05T08:53:21.862Z,99930.66
2022-12-05T08:54:05.137Z,99927.50
2022-12-05T08:54:46.836Z,99914.50
2022-12-05T08:55:28.484Z,99939.16
2022-12-05T08:56:10.948Z,99941.81
2022-12-05T08:56:52.751Z,99923.44